createdAt,value
2023-05-04T00:02:14.196Z,4.30
2023-05-04T00:04:43.820Z,4.40
2023-05-04T00:07:12.355Z,4.40
2023-05-04T00:09:42.245Z,4.40
2023-05-04T00:12:10.738Z,4.50
2023-05-04T00:14:39.488Z,4.50
2023-05-04T00:17:08.285Z,4.50
2023-05-04T00:19:39.477Z,4.60
2023-05-04T00:22:08.081Z,4.70
2023-05-04T00:24:36.703Z,4.60
2023-05-04T00:27:06.766Z,4.70
2023-05-04T00:29:35.699Z,4.80
2023-05-04T00:32:04.346Z,4.70
2023-05-04T00:34:34.355Z,4.70
2023-05-04T00:37:02.908Z,4.80
2023-05-04T00:39:31.423Z,4.80
2023-05-04T00:41:59.902Z,4.80
2023-05-04T00:44:29.966Z,4.80
2023-05-04T00:46:59.424Z,4.80
2023-05-04T00:49:28.427Z,4.90
2023-05-04T00:51:58.281Z,5.00
2023-05-04T00:54:27.473Z,5.10
2023-05-04T00:56:56.550Z,5.20
2023-05-04T00:59:24.987Z,5.20
2023-05-04T01:01:54.910Z,5.00
2023-05-04T01:04:23.479Z,4.90
2023-05-04T01:07:00.726Z,5.00
2023-05-04T01:09:36.595Z,5.00
2023-05-04T01:12:09.581Z,4.80
2023-05-04T01:14:38.560Z,4.50
2023-05-04T01:17:09.519Z,4.40
2023-05-04T01:19:38.219Z,4.40
2023-05-04T01:22:08.110Z,4.50
2023-05-04T01:24:36.842Z,4.40
2023-05-04T01:27:10.090Z,4.40
2023-05-04T01:29:46.234Z,4.40
2023-05-04T01:32:16.379Z,4.40
2023-05-04T01:34:45.061Z,4.40
2023-05-04T01:37:15.099Z,4.50
2023-05-04T01:39:43.689Z,4.50
2023-05-04T01:42:12.204Z,4.60
2023-05-04T01:44:40.984Z,4.60
2023-05-04T01:47:09.525Z,4.50
2023-05-04T01:49:38.013Z,4.40
2023-05-04T01:52:06.880Z,4.40
2023-05-04T01:54:36.966Z,4.30
2023-05-04T01:57:05.555Z,4.30
2023-05-04T01:59:34.640Z,4.30
2023-05-04T02:02:03.348Z,4.30
2023-05-04T02:04:31.945Z,4.40
2023-05-04T02:07:00.704Z,4.40
2023-05-04T02:09:29.534Z,4.50
2023-05-04T02:11:59.544Z,4.50
2023-05-04T02:14:28.138Z,4.40
2023-05-04T02:16:56.797Z,4.40
2023-05-04T02:19:25.295Z,4.50
2023-05-04T02:21:54.021Z,4.60
2023-05-04T02:24:22.444Z,4.60
2023-05-04T02:26:50.928Z,4.60
2023-05-04T02:29:21.107Z,4.60
2023-05-04T02:31:49.655Z,4.60
2023-05-04T02:34:18.140Z,4.60
2023-05-04T02:36:47.203Z,4.60
2023-05-04T02:39:15.993Z,4.60
2023-05-04T02:41:44.511Z,4.60
2023-05-04T02:44:12.986Z,4.50
2023-05-04T02:46:42.869Z,4.50
2023-05-04T02:49:11.548Z,4.40
2023-05-04T02:51:40.053Z,4.40
2023-05-04T02:54:08.525Z,4.40
2023-05-04T02:56:37.060Z,4.40
2023-05-04T02:59:05.995Z,4.40
2023-05-04T03:01:35.077Z,4.40
2023-05-04T03:04:05.116Z,4.40
2023-05-04T03:06:33.870Z,4.40
2023-05-04T03:09:02.348Z,4.30
2023-05-04T03:11:30.806Z,4.20
2023-05-04T03:13:59.370Z,4.20
2023-05-04T03:16:27.927Z,4.20
2023-05-04T03:21:43.930Z,4.20
2023-05-04T03:24:12.648Z,4.10
2023-05-04T03:26:41.580Z,4.00
2023-05-04T03:29:10.861Z,4.00
2023-05-04T03:31:39.510Z,3.90
2023-05-04T03:34:09.794Z,3.90
2023-05-04T03:36:38.277Z,3.90
2023-05-04T03:39:08.144Z,3.90
2023-05-04T03:41:36.747Z,3.80
2023-05-04T03:44:05.506Z,3.80
2023-05-04T03:46:34.680Z,3.80
2023-05-04T03:49:03.349Z,3.90
2023-05-04T03:51:31.940Z,3.80
2023-05-04T03:54:01.016Z,3.80
2023-05-04T03:56:30.887Z,3.80
2023-05-04T03:58:59.376Z,3.90
2023-05-04T04:01:27.878Z,4.00
2023-05-04T04:03:56.515Z,4.00
2023-05-04T04:06:25.092Z,4.10
2023-05-04T04:08:53.565Z,4.10
2023-05-04T04:11:22.093Z,4.20
2023-05-04T04:13:52.003Z,4.10
2023-05-04T04:16:21.668Z,4.10
2023-05-04T04:18:50.592Z,4.20
2023-05-04T04:21:19.207Z,4.20
2023-05-04T04:23:47.778Z,4.20
2023-05-04T04:26:16.364Z,4.30
2023-05-04T04:28:50.597Z,4.30
2023-05-04T04:31:21.450Z,4.40
2023-05-04T04:33:53.199Z,4.60
2023-05-04T04:36:21.812Z,4.80
2023-05-04T04:38:50.346Z,4.80
2023-05-04T04:41:19.200Z,4.90
2023-05-04T04:43:48.105Z,4.90
2023-05-04T04:46:16.810Z,5.10
2023-05-04T04:48:47.314Z,5.10
2023-05-04T04:51:15.943Z,5.20
2023-05-04T04:53:44.538Z,5.20
2023-05-04T04:56:13.175Z,5.30
2023-05-04T04:58:41.757Z,5.40
2023-05-04T05:01:10.286Z,5.40
2023-05-04T05:03:38.919Z,5.40
2023-05-04T05:06:08.879Z,5.50
2023-05-04T05:08:37.518Z,5.60
2023-05-04T05:11:06.294Z,5.60
2023-05-04T05:13:35.118Z,5.60
2023-05-04T05:16:03.768Z,5.60
2023-05-04T05:18:32.498Z,5.60
2023-05-04T05:21:02.067Z,5.60
2023-05-04T05:23:31.978Z,5.70
2023-05-04T05:26:03.164Z,5.80
2023-05-04T05:28:32.369Z,5.90
2023-05-04T05:31:01.011Z,6.00
2023-05-04T05:33:29.518Z,6.20
2023-05-04T05:35:58.220Z,6.40
2023-05-04T05:38:27.005Z,6.60
2023-05-04T05:40:57.096Z,6.70
2023-05-04T05:43:25.568Z,6.90
2023-05-04T05:45:54.744Z,7.00
2023-05-04T05:48:23.347Z,7.20
2023-05-04T05:50:52.123Z,7.50
2023-05-04T05:53:20.768Z,7.70
2023-05-04T05:55:49.287Z,8.00
2023-05-04T05:58:19.244Z,8.20
2023-05-04T06:00:48.270Z,8.50
2023-05-04T06:03:16.788Z,8.70
2023-05-04T06:05:45.331Z,9.10
2023-05-04T06:08:13.869Z,9.30
2023-05-04T06:10:43.058Z,9.60
2023-05-04T06:13:11.632Z,9.70
2023-05-04T06:15:41.723Z,9.80
2023-05-04T06:18:10.309Z,9.90
2023-05-04T06:20:38.788Z,10.10
2023-05-04T06:23:07.497Z,10.10
2023-05-04T06:25:36.801Z,10.20
2023-05-04T06:28:05.614Z,10.30
2023-05-04T06:30:34.779Z,10.40
2023-05-04T06:33:05.037Z,10.40
2023-05-04T06:35:33.670Z,10.40
2023-05-04T06:38:02.178Z,10.50
2023-05-04T06:40:30.793Z,10.50
2023-05-04T06:42:59.335Z,10.40
2023-05-04T06:45:28.017Z,10.40
2023-05-04T06:47:56.543Z,10.40
2023-05-04T06:50:27.051Z,10.40
2023-05-04T06:53:04.301Z,10.30
2023-05-04T06:55:33.287Z,10.40
2023-05-04T06:58:01.850Z,10.50
2023-05-04T07:00:30.723Z,10.60
2023-05-04T07:02:59.368Z,10.60
2023-05-04T07:05:30.273Z,10.70
2023-05-04T07:07:59.925Z,10.80
2023-05-04T07:10:28.777Z,10.90
2023-05-04T07:12:57.603Z,11.10
2023-05-04T07:15:26.315Z,11.30
2023-05-04T07:17:54.827Z,11.50
2023-05-04T07:20:25.827Z,11.60
2023-05-04T07:22:57.708Z,11.70
2023-05-04T07:25:26.325Z,11.80
2023-05-04T07:27:55.373Z,11.90
2023-05-04T07:30:24.038Z,11.80
2023-05-04T07:32:52.816Z,11.80
2023-05-04T07:35:21.512Z,12.00
2023-05-04T07:37:50.033Z,12.10
2023-05-04T07:40:20.394Z,12.30
2023-05-04T07:42:49.401Z,12.50
2023-05-04T07:45:18.243Z,12.80
2023-05-04T07:47:46.874Z,13.10
2023-05-04T07:50:16.180Z,13.30
2023-05-04T07:52:46.514Z,13.50
2023-05-04T07:55:15.107Z,13.60
2023-05-04T07:57:45.041Z,13.80
2023-05-04T08:00:14.921Z,14.00
2023-05-04T08:02:43.861Z,14.20
2023-05-04T08:05:12.633Z,14.40
2023-05-04T08:07:41.228Z,14.90
2023-05-04T08:10:10.525Z,15.40
2023-05-04T08:12:40.995Z,16.10
2023-05-04T08:15:11.918Z,17.30
2023-05-04T08:17:40.833Z,18.30
2023-05-04T08:20:10.958Z,18.80
2023-05-04T08:22:40.087Z,19.40
2023-05-04T08:25:09.890Z,19.70
2023-05-04T08:27:38.376Z,20.00
2023-05-04T08:30:08.592Z,20.10
2023-05-04T08:32:38.660Z,20.10
2023-05-04T08:35:08.115Z,19.70
2023-05-04T08:37:36.880Z,19.80
2023-05-04T08:40:06.212Z,19.70
2023-05-04T08:42:35.100Z,19.70
2023-05-04T08:45:03.856Z,19.50
2023-05-04T08:47:32.607Z,19.10
2023-05-04T08:50:02.626Z,18.80
2023-05-04T08:52:32.449Z,18.50
2023-05-04T08:55:01.551Z,18.40
2023-05-04T08:57:30.917Z,19.10
2023-05-04T09:00:01.487Z,20.00
2023-05-04T09:02:31.474Z,21.20
2023-05-04T09:05:03.220Z,22.60
2023-05-04T09:07:32.169Z,24.20
2023-05-04T09:10:01.031Z,24.70
2023-05-04T09:12:29.674Z,25.00
2023-05-04T09:14:58.563Z,24.80
2023-05-04T09:17:29.399Z,24.20
2023-05-04T09:20:03.598Z,23.70
2023-05-04T09:22:32.705Z,23.40
2023-05-04T09:25:12.328Z,23.20
2023-05-04T09:27:42.832Z,23.30
2023-05-04T09:30:13.898Z,23.40
2023-05-04T09:32:46.860Z,23.30
2023-05-04T09:35:31.980Z,23.30
2023-05-04T09:38:02.314Z,23.90
2023-05-04T09:40:34.787Z,24.10
2023-05-04T09:43:03.627Z,24.10
2023-05-04T09:45:41.388Z,24.20
2023-05-04T09:48:20.638Z,24.70
2023-05-04T09:50:55.135Z,24.40
2023-05-04T09:53:25.350Z,24.10
2023-05-04T09:56:09.789Z,23.90
2023-05-04T09:58:38.747Z,23.30
2023-05-04T10:01:08.341Z,23.30
2023-05-04T10:03:37.057Z,23.70
2023-05-04T10:06:09.187Z,24.00
2023-05-04T10:08:38.430Z,23.70
2023-05-04T10:11:07.666Z,23.30
2023-05-04T10:13:36.936Z,23.10
2023-05-04T10:16:19.418Z,23.50
2023-05-04T10:19:03.966Z,23.70
2023-05-04T10:21:45.548Z,23.80
2023-05-04T10:24:35.412Z,23.90
2023-05-04T10:27:10.536Z,24.60
2023-05-04T10:29:39.565Z,25.10
2023-05-04T10:32:19.297Z,25.10
2023-05-04T10:34:48.454Z,25.40
2023-05-04T10:37:21.996Z,25.70
2023-05-04T10:39:54.729Z,25.50
2023-05-04T10:42:23.456Z,25.80
2023-05-04T10:44:53.510Z,26.40
2023-05-04T10:47:33.504Z,27.10
2023-05-04T10:50:06.595Z,27.70
2023-05-04T10:52:48.145Z,27.90
2023-05-04T10:55:17.326Z,27.60
2023-05-04T10:57:51.166Z,28.00
2023-05-04T11:00:20.386Z,28.10
2023-05-04T11:02:50.397Z,28.10
2023-05-04T11:05:20.993Z,28.00
2023-05-04T11:07:53.476Z,27.60
2023-05-04T11:10:22.839Z,27.20
2023-05-04T11:12:51.593Z,26.50
2023-05-04T11:15:20.683Z,25.70
2023-05-04T11:17:49.744Z,25.20
2023-05-04T11:20:25.428Z,24.90
2023-05-04T11:22:56.209Z,25.10
2023-05-04T11:25:29.152Z,26.20
2023-05-04T11:27:58.485Z,26.20
2023-05-04T11:30:33.894Z,25.90
2023-05-04T11:33:03.232Z,26.30
2023-05-04T11:35:32.411Z,27.10
2023-05-04T11:38:02.384Z,27.50
2023-05-04T11:40:30.989Z,27.60
2023-05-04T11:43:00.750Z,27.80
2023-05-04T11:45:31.423Z,28.10
2023-05-04T11:48:00.654Z,27.90
2023-05-04T11:50:30.309Z,27.80
2023-05-04T11:53:10.460Z,27.40
2023-05-04T11:55:39.310Z,26.80
2023-05-04T11:58:09.508Z,26.00
2023-05-04T12:00:40.134Z,25.60
2023-05-04T12:03:10.226Z,25.10
2023-05-04T12:05:38.808Z,25.00
2023-05-04T12:08:12.570Z,25.70
2023-05-04T12:10:41.456Z,25.40
2023-05-04T12:13:17.903Z,25.00
2023-05-04T12:15:46.606Z,24.80
2023-05-04T12:18:29.844Z,24.20
2023-05-04T12:21:08.332Z,24.20
2023-05-04T12:23:38.803Z,25.60
2023-05-04T12:26:07.756Z,25.90
2023-05-04T12:28:37.234Z,25.90
2023-05-04T12:31:07.098Z,25.40
2023-05-04T12:33:36.605Z,25.10
2023-05-04T12:36:06.254Z,24.70
2023-05-04T12:38:35.627Z,24.20
2023-05-04T12:41:06.062Z,24.00
2023-05-04T12:43:35.305Z,23.60
2023-05-04T12:46:03.937Z,23.10
2023-05-04T12:48:33.244Z,22.70
2023-05-04T12:51:04.170Z,22.20
2023-05-04T12:53:33.489Z,21.70
2023-05-04T12:56:04.659Z,21.40
2023-05-04T12:58:33.263Z,21.30
2023-05-04T13:01:02.512Z,21.30
2023-05-04T13:03:31.450Z,21.20
2023-05-04T13:06:00.071Z,21.10
2023-05-04T13:08:28.572Z,20.90
2023-05-04T13:10:57.112Z,20.80
2023-05-04T13:13:29.156Z,20.70
2023-05-04T13:15:57.874Z,20.90
2023-05-04T13:18:27.727Z,21.00
2023-05-04T13:20:56.774Z,21.20
2023-05-04T13:23:25.589Z,21.40
2023-05-04T13:25:54.239Z,21.60
2023-05-04T13:28:22.799Z,22.10
2023-05-04T13:30:53.164Z,22.70
2023-05-04T13:33:29.614Z,23.10
2023-05-04T13:35:59.378Z,23.00
2023-05-04T13:38:28.621Z,23.10
2023-05-04T13:40:57.342Z,23.10
2023-05-04T13:43:26.470Z,23.10
2023-05-04T13:45:57.454Z,23.40
2023-05-04T13:48:26.960Z,23.80
2023-05-04T13:50:55.939Z,24.00
2023-05-04T13:53:24.984Z,24.20
2023-05-04T13:55:53.488Z,24.50
2023-05-04T13:58:21.995Z,24.60
2023-05-04T14:00:50.490Z,24.80
2023-05-04T14:03:20.438Z,24.70
2023-05-04T14:05:48.989Z,24.70
2023-05-04T14:08:17.448Z,25.00
2023-05-04T14:10:46.092Z,25.10
2023-05-04T14:13:14.917Z,25.10
2023-05-04T14:15:43.521Z,25.40
2023-05-04T14:18:12.292Z,25.30
2023-05-04T14:20:42.237Z,25.30
2023-05-04T14:23:10.785Z,25.60
2023-05-04T14:25:42.126Z,25.80
2023-05-04T14:28:10.887Z,25.50
2023-05-04T14:30:39.434Z,25.40
2023-05-04T14:33:08.069Z,25.30
2023-05-04T14:35:37.521Z,25.50
2023-05-04T14:38:07.826Z,25.50
2023-05-04T14:40:36.742Z,25.50
2023-05-04T14:43:05.194Z,25.30
2023-05-04T14:45:35.786Z,24.80
2023-05-04T14:48:04.353Z,24.40
2023-05-04T14:50:32.870Z,23.70
2023-05-04T14:53:01.420Z,23.20
2023-05-04T14:55:33.962Z,22.50
2023-05-04T14:58:02.612Z,22.20
2023-05-04T15:00:31.266Z,21.80
2023-05-04T15:02:59.836Z,21.60
2023-05-04T15:05:28.509Z,21.60
2023-05-04T15:07:57.010Z,21.60
2023-05-04T15:10:26.399Z,21.30
2023-05-04T15:12:57.590Z,20.90
2023-05-04T15:15:26.180Z,20.50
2023-05-04T15:17:54.708Z,20.20
2023-05-04T15:20:24.706Z,19.90
2023-05-04T15:22:54.059Z,19.70
2023-05-04T15:25:25.167Z,19.60
2023-05-04T15:27:53.728Z,19.50
2023-05-04T15:30:23.918Z,19.30
2023-05-04T15:32:52.533Z,19.30
2023-05-04T15:35:21.278Z,19.30
2023-05-04T15:37:49.767Z,19.10
2023-05-04T15:40:18.294Z,18.80
2023-05-04T15:42:46.786Z,18.70
2023-05-04T15:45:16.483Z,18.60
2023-05-04T15:47:46.880Z,18.40
2023-05-04T15:50:15.531Z,18.30
2023-05-04T15:52:44.049Z,18.30
2023-05-04T15:55:23.588Z,18.20
2023-05-04T15:57:54.131Z,18.20
2023-05-04T16:00:23.654Z,18.10
2023-05-04T16:02:53.685Z,18.00
2023-05-04T16:05:22.185Z,17.90
2023-05-04T16:07:51.065Z,17.80
2023-05-04T16:10:19.877Z,17.60
2023-05-04T16:12:48.794Z,17.50
2023-05-04T16:15:17.594Z,17.30
2023-05-04T16:17:46.097Z,17.10
2023-05-04T16:20:16.217Z,16.90
2023-05-04T16:22:44.855Z,16.90
2023-05-04T16:25:13.322Z,16.80
2023-05-04T16:27:41.831Z,16.80
2023-05-04T16:30:11.338Z,16.80
2023-05-04T16:32:39.894Z,16.70
2023-05-04T16:35:09.455Z,16.70
2023-05-04T16:37:39.670Z,16.60
2023-05-04T16:40:14.385Z,16.60
2023-05-04T16:42:43.276Z,16.50
2023-05-04T16:45:13.621Z,16.50
2023-05-04T16:47:42.731Z,16.50
2023-05-04T16:50:12.107Z,16.40
2023-05-04T16:52:42.157Z,16.40
2023-05-04T16:55:12.333Z,16.40
2023-05-04T16:57:41.096Z,16.40
2023-05-04T17:00:11.076Z,16.30
2023-05-04T17:02:40.426Z,16.20
2023-05-04T17:05:10.741Z,16.10
2023-05-04T17:07:39.981Z,16.10
2023-05-04T17:10:11.735Z,16.00
2023-05-04T17:12:40.431Z,16.00
2023-05-04T17:15:10.753Z,16.00
2023-05-04T17:17:39.585Z,15.90
2023-05-04T17:20:14.811Z,15.90
2023-05-04T17:22:43.822Z,15.80
2023-05-04T17:25:14.478Z,15.80
2023-05-04T17:27:44.015Z,15.80
2023-05-04T17:30:13.756Z,15.70
2023-05-04T17:32:43.879Z,15.70
2023-05-04T17:35:24.506Z,15.60
2023-05-04T17:37:57.565Z,15.50
2023-05-04T17:40:28.766Z,15.30
2023-05-04T17:42:57.502Z,15.20
2023-05-04T17:45:26.002Z,15.10
2023-05-04T17:47:54.655Z,14.90
2023-05-04T17:50:23.454Z,14.90
2023-05-04T17:52:55.932Z,14.80
2023-05-04T17:55:26.015Z,14.70
2023-05-04T17:57:56.261Z,14.60
2023-05-04T18:00:25.283Z,14.50
2023-05-04T18:02:54.064Z,14.50
2023-05-04T18:05:22.972Z,14.50
2023-05-04T18:07:51.741Z,14.30
2023-05-04T18:10:20.505Z,14.30
2023-05-04T18:12:49.122Z,14.20
2023-05-04T18:15:19.340Z,14.10
2023-05-04T18:17:49.086Z,14.10
2023-05-04T18:20:17.617Z,14.20
2023-05-04T18:22:46.864Z,14.10
2023-05-04T18:25:16.470Z,14.10
2023-05-04T18:27:45.187Z,14.00
2023-05-04T18:30:14.026Z,14.00
2023-05-04T18:32:45.662Z,13.90
2023-05-04T18:35:14.286Z,13.80
2023-05-04T18:37:43.152Z,13.70
2023-05-04T18:40:13.090Z,13.60
2023-05-04T18:42:41.593Z,13.60
2023-05-04T18:45:11.581Z,13.50
2023-05-04T18:47:40.238Z,13.40
2023-05-04T18:50:11.524Z,13.40
2023-05-04T18:52:40.138Z,13.40
2023-05-04T18:55:09.266Z,13.30
2023-05-04T18:57:38.039Z,13.20
2023-05-04T19:00:08.959Z,13.20
2023-05-04T19:02:39.029Z,13.20
2023-05-04T19:05:11.204Z,13.10
2023-05-04T19:07:41.120Z,13.00
2023-05-04T19:10:10.949Z,12.90
2023-05-04T19:12:39.428Z,12.90
2023-05-04T19:15:09.260Z,12.80
2023-05-04T19:17:38.034Z,12.80
2023-05-04T19:20:09.223Z,12.80
2023-05-04T19:22:40.193Z,12.80
2023-05-04T19:25:12.271Z,12.70
2023-05-04T19:27:44.291Z,12.60
2023-05-04T19:30:13.527Z,12.50
2023-05-04T19:32:42.203Z,12.50
2023-05-04T19:35:11.637Z,12.50
2023-05-04T19:37:42.264Z,12.40
2023-05-04T19:40:11.300Z,12.40
2023-05-04T19:42:46.240Z,12.30
2023-05-04T19:45:14.952Z,12.30
2023-05-04T19:47:45.583Z,12.30
2023-05-04T19:50:15.887Z,12.30
2023-05-04T19:52:46.055Z,12.30
2023-05-04T19:55:14.691Z,12.20
2023-05-04T19:57:43.278Z,12.20
2023-05-04T20:00:12.807Z,12.20
2023-05-04T20:02:42.990Z,12.20
2023-05-04T20:05:11.534Z,12.00
2023-05-04T20:07:40.176Z,12.00
2023-05-04T20:10:10.496Z,11.90
2023-05-04T20:12:39.215Z,11.90
2023-05-04T20:15:08.196Z,11.90
2023-05-04T20:17:37.325Z,11.80
2023-05-04T20:20:07.066Z,11.90
2023-05-04T20:22:36.256Z,11.90
2023-05-04T20:25:05.944Z,11.80
2023-05-04T20:27:36.228Z,11.80
2023-05-04T20:30:05.386Z,11.70
2023-05-04T20:32:34.783Z,11.70
2023-05-04T20:35:03.755Z,11.70
2023-05-04T20:37:32.275Z,11.70
2023-05-04T20:40:01.020Z,11.70
2023-05-04T20:42:29.604Z,11.70
2023-05-04T20:44:59.444Z,11.70
2023-05-04T20:47:28.743Z,11.70
2023-05-04T20:49:57.517Z,11.80
2023-05-04T20:52:26.292Z,11.80
2023-05-04T20:54:54.903Z,11.80
2023-05-04T20:57:23.437Z,11.80
2023-05-04T20:59:52.054Z,11.70
2023-05-04T21:02:22.456Z,11.70
2023-05-04T21:04:51.579Z,11.70
2023-05-04T21:07:20.675Z,11.70
2023-05-04T21:09:49.136Z,11.70
2023-05-04T21:12:17.773Z,11.60
2023-05-04T21:14:46.273Z,11.50
2023-05-04T21:17:14.773Z,11.50
2023-05-04T21:19:44.773Z,11.50
2023-05-04T21:22:17.707Z,11.50
2023-05-04T21:24:47.276Z,11.50
2023-05-04T21:27:15.814Z,11.50
2023-05-04T21:29:44.245Z,11.40
2023-05-04T21:32:12.876Z,11.40
2023-05-04T21:34:41.479Z,11.40
2023-05-04T21:37:11.365Z,11.40
2023-05-04T21:39:39.864Z,11.40
2023-05-04T21:42:08.359Z,11.40
2023-05-04T21:44:37.337Z,11.30
2023-05-04T21:47:07.335Z,11.20
2023-05-04T21:49:36.066Z,11.20
2023-05-04T21:52:04.657Z,11.20
2023-05-04T21:54:34.647Z,11.10
2023-05-04T21:57:03.638Z,11.10
2023-05-04T21:59:32.125Z,11.10
2023-05-04T22:02:01.684Z,11.20
2023-05-04T22:04:30.714Z,11.10
2023-05-04T22:06:59.775Z,11.10
2023-05-04T22:09:29.612Z,11.10
2023-05-04T22:11:59.674Z,11.10
2023-05-04T22:14:28.162Z,11.10
2023-05-04T22:16:56.651Z,11.10
2023-05-04T22:19:25.246Z,11.10
2023-05-04T22:21:53.805Z,11.10
2023-05-04T22:24:22.336Z,11.10
2023-05-04T22:26:50.854Z,11.10
2023-05-04T22:29:20.787Z,11.10
2023-05-04T22:31:49.297Z,11.10
2023-05-04T22:34:17.783Z,11.10
2023-05-04T22:36:46.640Z,11.10
2023-05-04T22:39:15.983Z,11.10
2023-05-04T22:41:44.550Z,11.10
2023-05-04T22:44:13.028Z,11.10
2023-05-04T22:46:43.107Z,11.00
2023-05-04T22:49:11.626Z,11.00
2023-05-04T22:51:40.087Z,11.00
2023-05-04T22:54:09.488Z,11.00
2023-05-04T22:56:38.179Z,10.90
2023-05-04T22:59:06.911Z,10.90
2023-05-04T23:01:36.047Z,10.90
2023-05-04T23:04:06.128Z,10.90
2023-05-04T23:06:38.007Z,10.80
2023-05-04T23:09:06.630Z,10.80
2023-05-04T23:11:35.605Z,10.80
2023-05-04T23:14:04.085Z,10.80
2023-05-04T23:16:32.672Z,10.80
2023-05-04T23:19:01.249Z,10.70
2023-05-04T23:21:31.376Z,10.80
2023-05-04T23:24:00.070Z,10.70
2023-05-04T23:26:28.558Z,10.70
2023-05-04T23:28:57.116Z,10.70
2023-05-04T23:31:26.138Z,10.60
2023-05-04T23:33:54.602Z,10.60
2023-05-04T23:36:23.046Z,10.60
2023-05-04T23:38:52.963Z,10.60
2023-05-04T23:41:21.463Z,10.60
2023-05-04T23:43:50.006Z,10.60
2023-05-04T23:46:18.737Z,10.60
2023-05-04T23:48:47.239Z,10.60
2023-05-04T23:51:15.715Z,10.60
2023-05-04T23:53:44.288Z,10.60
2023-05-04T23:56:14.569Z,10.50
2023-05-04T23:58:43.626Z,10.50
